createdAt,value
2022-09-16T00:00:57.973Z,83.28
2022-09-16T00:03:25.470Z,83.23
2022-09-16T00:05:53.888Z,82.20
2022-09-16T00:08:22.211Z,81.50
2022-09-16T00:10:49.350Z,81.95
2022-09-16T00:13:16.581Z,82.25
2022-09-16T00:15:51.345Z,82.64
2022-09-16T00:18:20.483Z,81.82
2022-09-16T00:20:54.760Z,83.47
2022-09-16T00:23:21.798Z,82.97
2022-09-16T00:25:56.150Z,82.26
2022-09-16T00:28:24.068Z,82.08
2022-09-16T00:30:51.388Z,82.06
2022-09-16T00:33:20.090Z,83.51
2022-09-16T00:35:47.705Z,82.17
2022-09-16T00:38:15.071Z,82.66
2022-09-16T00:40:48.004Z,82.35
2022-09-16T00:43:19.807Z,82.54
2022-09-16T00:46:00.033Z,82.59
2022-09-16T00:48:30.526Z,83.73
2022-09-16T00:51:07.703Z,82.82
2022-09-16T00:53:52.039Z,82.04
2022-09-16T00:56:23.864Z,82.42
2022-09-16T00:59:20.649Z,82.31
2022-09-16T01:01:48.241Z,82.53
2022-09-16T01:04:26.377Z,81.46
2022-09-16T01:06:54.071Z,82.29
2022-09-16T01:09:25.643Z,81.30
2022-09-16T01:11:52.622Z,81.92
2022-09-16T01:14:40.832Z,82.31
2022-09-16T01:17:41.279Z,82.31
2022-09-16T01:20:29.834Z,82.92
2022-09-16T01:23:59.859Z,82.78
2022-09-16T01:27:29.643Z,82.89
2022-09-16T01:30:44.533Z,83.07
2022-09-16T01:33:44.985Z,82.64
2022-09-16T01:36:37.172Z,83.55
2022-09-16T01:40:00.013Z,83.95
2022-09-16T01:43:06.441Z,82.94
2022-09-16T01:45:50.317Z,83.17
2022-09-16T01:48:43.715Z,83.01
2022-09-16T01:51:31.712Z,84.74
2022-09-16T01:54:20.688Z,83.67
2022-09-16T01:57:03.401Z,84.09
2022-09-16T01:59:46.345Z,84.25
2022-09-16T02:02:53.335Z,84.07
2022-09-16T02:05:37.245Z,85.00
2022-09-16T02:08:15.051Z,85.13
2022-09-16T02:10:49.905Z,86.05
2022-09-16T02:13:26.370Z,84.72
2022-09-16T02:15:58.381Z,84.54
2022-09-16T02:18:35.195Z,85.32
2022-09-16T02:21:08.402Z,85.31
2022-09-16T02:23:45.384Z,85.24
2022-09-16T02:26:21.734Z,85.54
2022-09-16T02:28:52.073Z,85.54
2022-09-16T02:31:26.377Z,85.97
2022-09-16T02:34:34.411Z,86.49
2022-09-16T02:37:11.827Z,84.59
2022-09-16T02:39:44.467Z,85.26
2022-09-16T02:42:11.675Z,85.60
2022-09-16T02:44:38.832Z,86.11
2022-09-16T02:47:45.216Z,85.53
2022-09-16T02:50:40.125Z,86.58
2022-09-16T02:54:04.905Z,87.04
2022-09-16T02:56:39.277Z,88.41
2022-09-16T02:59:11.405Z,87.14
2022-09-16T03:01:43.610Z,87.90
2022-09-16T03:04:16.982Z,88.19
2022-09-16T03:06:44.014Z,87.46
2022-09-16T03:09:13.839Z,86.98
2022-09-16T03:12:17.802Z,87.03
2022-09-16T03:15:27.224Z,87.67
2022-09-16T03:18:21.198Z,87.01
2022-09-16T03:21:46.496Z,87.08
2022-09-16T03:24:30.032Z,87.19
2022-09-16T03:27:10.153Z,87.03
2022-09-16T03:30:18.907Z,86.39
2022-09-16T03:33:09.710Z,86.32
2022-09-16T03:35:50.312Z,86.59
2022-09-16T03:38:19.329Z,87.42
2022-09-16T03:40:48.378Z,86.12
2022-09-16T03:43:17.513Z,87.51
2022-09-16T03:45:45.211Z,87.27
2022-09-16T03:48:16.850Z,87.06
2022-09-16T03:50:47.189Z,86.94
2022-09-16T03:53:14.146Z,86.82
2022-09-16T03:55:41.111Z,88.07
2022-09-16T03:58:08.041Z,87.69
2022-09-16T04:00:35.239Z,88.72
2022-09-16T04:03:02.242Z,86.92
2022-09-16T04:05:29.433Z,87.87
2022-09-16T04:07:56.445Z,87.05
2022-09-16T04:10:23.385Z,87.63
2022-09-16T04:12:50.386Z,88.00
2022-09-16T04:15:17.370Z,87.28
2022-09-16T04:17:44.300Z,86.77
2022-09-16T04:20:11.505Z,86.73
2022-09-16T04:22:38.507Z,86.41
2022-09-16T04:25:06.326Z,87.17
2022-09-16T04:27:33.522Z,87.66
2022-09-16T04:30:00.582Z,87.39
2022-09-16T04:32:27.518Z,85.87
2022-09-16T04:34:55.348Z,89.02
2022-09-16T04:37:22.337Z,87.55
2022-09-16T04:39:49.340Z,87.68
2022-09-16T04:42:16.324Z,88.18
2022-09-16T04:44:44.729Z,87.23
2022-09-16T04:47:11.831Z,87.34
2022-09-16T04:49:38.761Z,87.04
2022-09-16T04:52:05.867Z,86.02
2022-09-16T04:54:32.924Z,86.69
2022-09-16T04:57:01.137Z,86.91
2022-09-16T04:59:28.094Z,85.93
2022-09-16T05:01:55.217Z,86.51
2022-09-16T05:04:22.932Z,86.55
2022-09-16T05:06:52.065Z,85.88
2022-09-16T05:09:22.170Z,86.85
2022-09-16T05:11:49.668Z,86.19
2022-09-16T05:14:18.820Z,85.70
2022-09-16T05:16:46.437Z,86.50
2022-09-16T05:19:15.031Z,85.57
2022-09-16T05:21:43.160Z,85.70
2022-09-16T05:24:14.954Z,85.76
2022-09-16T05:26:43.331Z,85.59
2022-09-16T05:29:17.424Z,85.70
2022-09-16T05:31:47.454Z,84.75
2022-09-16T05:34:22.299Z,85.79
2022-09-16T05:36:50.711Z,85.85
2022-09-16T05:39:25.862Z,85.09
2022-09-16T05:41:59.769Z,86.06
2022-09-16T05:44:29.051Z,86.40
2022-09-16T05:46:56.414Z,86.29
2022-09-16T05:49:24.185Z,85.70
2022-09-16T05:51:52.138Z,83.69
2022-09-16T05:54:20.317Z,85.86
2022-09-16T05:56:48.326Z,85.43
2022-09-16T05:59:17.590Z,85.13
2022-09-16T06:01:45.465Z,84.31
2022-09-16T06:04:15.545Z,84.60
2022-09-16T06:06:46.134Z,84.51
2022-09-16T06:09:24.125Z,83.41
2022-09-16T06:11:59.381Z,84.07
2022-09-16T06:14:28.870Z,85.06
2022-09-16T06:16:56.491Z,83.96
2022-09-16T06:19:23.796Z,83.01
2022-09-16T06:21:50.870Z,83.44
2022-09-16T06:24:19.722Z,82.95
2022-09-16T06:26:49.425Z,84.33
2022-09-16T06:29:17.686Z,83.60
2022-09-16T06:31:44.862Z,83.20
2022-09-16T06:34:18.498Z,83.39
2022-09-16T06:36:46.955Z,83.67
2022-09-16T06:39:18.113Z,83.09
2022-09-16T06:41:45.931Z,82.49
2022-09-16T06:44:13.029Z,82.31
2022-09-16T06:46:40.182Z,81.57
2022-09-16T06:49:07.296Z,82.06
2022-09-16T06:51:36.529Z,82.92
2022-09-16T06:54:07.473Z,82.16
2022-09-16T06:56:37.626Z,79.63
2022-09-16T06:59:05.507Z,79.97
2022-09-16T07:01:33.933Z,80.04
2022-09-16T07:04:13.540Z,77.64
2022-09-16T07:09:28.350Z,77.24
2022-09-16T07:11:55.549Z,76.97
2022-09-16T07:14:23.189Z,78.32
2022-09-16T07:16:50.186Z,77.45
2022-09-16T07:19:17.229Z,77.80
2022-09-16T07:21:44.974Z,78.08
2022-09-16T07:24:14.214Z,78.68
2022-09-16T07:26:43.320Z,78.03
2022-09-16T07:29:18.116Z,79.26
2022-09-16T07:31:45.218Z,78.65
2022-09-16T07:34:13.903Z,77.77
2022-09-16T07:36:47.020Z,76.51
2022-09-16T07:39:17.955Z,76.86
2022-09-16T07:41:48.656Z,76.19
2022-09-16T07:44:19.294Z,75.58
2022-09-16T07:46:46.506Z,75.37
2022-09-16T07:49:14.997Z,74.26
2022-09-16T07:51:43.032Z,75.11
2022-09-16T07:54:16.644Z,74.33
2022-09-16T07:56:44.940Z,75.63
2022-09-16T07:59:19.305Z,75.62
2022-09-16T08:01:49.572Z,74.51
2022-09-16T08:04:19.431Z,74.41
2022-09-16T08:06:46.670Z,73.10
2022-09-16T08:09:37.912Z,73.48
2022-09-16T08:12:07.996Z,73.05
2022-09-16T08:14:35.191Z,71.69
2022-09-16T08:17:03.992Z,72.00
2022-09-16T08:19:30.955Z,71.91
2022-09-16T08:21:58.366Z,70.60
2022-09-16T08:24:25.436Z,72.03
2022-09-16T08:26:52.488Z,71.52
2022-09-16T08:29:19.548Z,72.21
2022-09-16T08:31:46.578Z,71.80
2022-09-16T08:34:13.783Z,70.45
2022-09-16T08:36:40.872Z,70.37
2022-09-16T08:39:09.202Z,70.66
2022-09-16T08:42:25.538Z,69.03
2022-09-16T08:45:40.057Z,68.40
2022-09-16T08:48:31.925Z,68.89
2022-09-16T08:51:02.272Z,68.28
2022-09-16T08:54:01.437Z,67.05
2022-09-16T08:56:35.453Z,68.51
2022-09-16T08:59:10.259Z,67.93
2022-09-16T09:02:00.473Z,68.04
2022-09-16T09:04:31.374Z,67.47
2022-09-16T09:07:26.827Z,64.99
2022-09-16T09:10:49.135Z,66.91
2022-09-16T09:14:03.879Z,64.29
2022-09-16T09:16:49.068Z,66.63
2022-09-16T09:20:06.599Z,65.31
2022-09-16T09:23:29.252Z,67.31
2022-09-16T09:26:08.056Z,67.37
2022-09-16T09:29:46.513Z,69.38
2022-09-16T09:32:49.099Z,65.41
2022-09-16T09:35:33.112Z,62.42
2022-09-16T09:38:45.264Z,61.04
2022-09-16T09:41:47.880Z,62.52
2022-09-16T09:44:51.819Z,63.10
2022-09-16T09:48:13.475Z,62.89
2022-09-16T09:50:49.819Z,58.85
2022-09-16T09:53:41.709Z,58.87
2022-09-16T09:56:25.181Z,59.17
2022-09-16T09:59:22.656Z,59.21
2022-09-16T10:02:01.057Z,57.80
2022-09-16T10:04:38.308Z,57.27
2022-09-16T10:07:07.418Z,57.84
2022-09-16T10:09:37.015Z,58.60
2022-09-16T10:12:05.371Z,55.75
2022-09-16T10:14:38.062Z,59.30
2022-09-16T10:17:16.836Z,56.91
2022-09-16T10:20:07.163Z,59.48
2022-09-16T10:22:36.182Z,56.98
2022-09-16T10:25:25.225Z,57.89
2022-09-16T10:28:02.894Z,57.68
2022-09-16T10:30:42.175Z,57.27
2022-09-16T10:33:23.619Z,55.61
2022-09-16T10:36:03.975Z,55.74
2022-09-16T10:38:51.701Z,55.21
2022-09-16T10:41:26.813Z,52.19
2022-09-16T10:44:41.267Z,52.05
2022-09-16T10:47:28.952Z,50.48
2022-09-16T10:50:05.028Z,51.88
2022-09-16T10:52:44.688Z,51.19
2022-09-16T10:55:36.569Z,51.27
2022-09-16T10:58:16.283Z,48.20
2022-09-16T11:01:56.396Z,49.40
2022-09-16T11:04:59.821Z,49.72
2022-09-16T11:07:47.388Z,46.51
2022-09-16T11:10:48.713Z,45.51
2022-09-16T11:14:02.144Z,46.27
2022-09-16T11:17:05.777Z,44.89
2022-09-16T11:20:17.603Z,45.23
2022-09-16T11:23:29.155Z,44.83
2022-09-16T11:26:23.356Z,43.36
2022-09-16T11:29:40.555Z,44.36
2022-09-16T11:32:54.775Z,43.60
2022-09-16T11:35:52.661Z,44.64
2022-09-16T11:39:04.016Z,43.39
2022-09-16T11:42:04.611Z,45.26
2022-09-16T11:44:49.484Z,43.11
2022-09-16T11:47:50.056Z,42.39
2022-09-16T11:50:44.139Z,43.69
2022-09-16T11:53:59.242Z,44.55
2022-09-16T11:56:48.256Z,44.24
2022-09-16T11:59:57.432Z,44.34
2022-09-16T12:03:10.753Z,44.05
2022-09-16T12:05:53.558Z,44.24
2022-09-16T12:08:50.521Z,43.36
2022-09-16T12:11:24.661Z,41.62
2022-09-16T12:14:05.960Z,43.42
2022-09-16T12:16:52.037Z,41.32
2022-09-16T12:19:35.609Z,42.74
2022-09-16T12:22:16.150Z,43.80
2022-09-16T12:25:03.493Z,42.37
2022-09-16T12:27:50.052Z,42.83
2022-09-16T12:30:27.327Z,44.23
2022-09-16T12:33:29.022Z,42.84
2022-09-16T12:36:20.422Z,42.05
2022-09-16T12:38:53.475Z,43.10
2022-09-16T12:41:51.771Z,45.38
2022-09-16T12:44:35.634Z,43.99
2022-09-16T12:47:35.569Z,41.82
2022-09-16T12:50:49.784Z,42.25
2022-09-16T12:53:52.728Z,40.82
2022-09-16T12:56:42.828Z,41.53
2022-09-16T12:59:24.377Z,41.49
2022-09-16T13:02:00.726Z,44.15
2022-09-16T13:04:45.225Z,42.42
2022-09-16T13:07:35.496Z,40.30
2022-09-16T13:10:26.419Z,41.40
2022-09-16T13:13:05.125Z,46.45
2022-09-16T13:15:40.000Z,42.92
2022-09-16T13:18:16.670Z,42.27
2022-09-16T13:21:05.564Z,42.67
2022-09-16T13:23:40.227Z,39.59
2022-09-16T13:26:09.817Z,39.44
2022-09-16T13:28:44.139Z,42.54
2022-09-16T13:31:14.336Z,43.75
2022-09-16T13:34:15.449Z,42.58
2022-09-16T13:36:42.532Z,38.56
2022-09-16T13:39:30.858Z,37.89
2022-09-16T13:42:09.474Z,36.65
2022-09-16T13:44:42.321Z,38.77
2022-09-16T13:47:12.218Z,38.17
2022-09-16T13:49:52.772Z,40.77
2022-09-16T13:52:28.808Z,38.48
2022-09-16T13:55:10.576Z,38.83
2022-09-16T13:58:29.439Z,38.31
2022-09-16T14:01:42.216Z,40.04
2022-09-16T14:05:03.919Z,38.65
2022-09-16T14:08:25.741Z,38.08
2022-09-16T14:11:22.446Z,39.90
2022-09-16T14:14:46.189Z,41.55
2022-09-16T14:17:51.358Z,42.23
2022-09-16T14:20:24.530Z,40.13
2022-09-16T14:23:26.481Z,40.14
2022-09-16T14:25:55.492Z,39.65
2022-09-16T14:28:27.883Z,39.54
2022-09-16T14:31:01.184Z,37.26
2022-09-16T14:33:46.054Z,38.18
2022-09-16T14:36:37.705Z,39.22
2022-09-16T14:39:07.557Z,36.96
2022-09-16T14:41:56.002Z,37.81
2022-09-16T14:44:51.344Z,38.31
2022-09-16T14:47:51.346Z,37.54
2022-09-16T14:50:38.848Z,36.74
2022-09-16T14:53:35.367Z,37.75
2022-09-16T14:56:04.825Z,38.32
2022-09-16T14:58:34.040Z,38.53
2022-09-16T15:01:18.225Z,38.26
2022-09-16T15:04:14.626Z,39.15
2022-09-16T15:06:52.837Z,39.40
2022-09-16T15:10:04.605Z,40.17
2022-09-16T15:13:02.723Z,39.83
2022-09-16T15:15:33.263Z,41.71
2022-09-16T15:18:24.335Z,40.03
2022-09-16T15:21:09.540Z,41.30
2022-09-16T15:23:42.979Z,40.79
2022-09-16T15:26:38.552Z,39.94
2022-09-16T15:29:20.670Z,41.52
2022-09-16T15:31:48.375Z,41.05
2022-09-16T15:34:20.824Z,41.52
2022-09-16T15:36:54.998Z,40.39
2022-09-16T15:39:38.363Z,41.38
2022-09-16T15:42:21.051Z,41.60
2022-09-16T15:44:57.877Z,41.12
2022-09-16T15:47:39.942Z,40.59
2022-09-16T15:50:20.019Z,41.84
2022-09-16T15:53:29.491Z,41.36
2022-09-16T15:56:58.874Z,42.04
2022-09-16T15:59:36.641Z,43.43
2022-09-16T16:02:24.887Z,43.46
2022-09-16T16:04:52.496Z,43.80
2022-09-16T16:07:54.656Z,45.40
2022-09-16T16:10:35.174Z,45.99
2022-09-16T16:13:04.558Z,45.40
2022-09-16T16:15:36.051Z,45.54
2022-09-16T16:18:10.649Z,45.20
2022-09-16T16:20:38.898Z,46.29
2022-09-16T16:23:06.244Z,45.92
2022-09-16T16:25:34.026Z,46.05
2022-09-16T16:28:01.206Z,47.00
2022-09-16T16:30:28.146Z,49.19
2022-09-16T16:32:55.104Z,47.48
2022-09-16T16:35:22.095Z,48.26
2022-09-16T16:37:49.119Z,49.27
2022-09-16T16:40:16.294Z,48.69
2022-09-16T16:42:44.503Z,48.66
2022-09-16T16:45:13.590Z,48.99
2022-09-16T16:47:41.592Z,49.70
2022-09-16T16:50:09.546Z,50.62
2022-09-16T16:52:36.869Z,51.45
2022-09-16T16:55:04.831Z,50.12
2022-09-16T16:57:32.196Z,50.71
2022-09-16T16:59:59.194Z,50.94
2022-09-16T17:02:26.322Z,51.05
2022-09-16T17:04:53.339Z,49.62
2022-09-16T17:07:28.206Z,48.66
2022-09-16T17:09:58.979Z,50.02
2022-09-16T17:12:26.867Z,49.89
2022-09-16T17:14:53.995Z,50.59
2022-09-16T17:17:20.950Z,50.39
2022-09-16T17:19:48.140Z,51.74
2022-09-16T17:22:15.892Z,49.57
2022-09-16T17:24:42.853Z,50.17
2022-09-16T17:27:09.896Z,50.34
2022-09-16T17:29:36.921Z,50.94
2022-09-16T17:32:04.096Z,50.74
2022-09-16T17:34:31.301Z,50.60
2022-09-16T17:36:58.543Z,52.29
2022-09-16T17:39:26.041Z,51.08
2022-09-16T17:41:56.492Z,51.41
2022-09-16T17:44:23.558Z,51.51
2022-09-16T17:46:50.687Z,52.14
2022-09-16T17:49:24.243Z,51.46
2022-09-16T17:51:53.496Z,51.09
2022-09-16T17:54:21.832Z,51.04
2022-09-16T17:56:48.949Z,50.67
2022-09-16T17:59:18.829Z,50.66
2022-09-16T18:01:46.329Z,51.43
2022-09-16T18:04:13.679Z,50.96
2022-09-16T18:06:44.924Z,51.09
2022-09-16T18:09:13.325Z,49.92
2022-09-16T18:11:40.618Z,50.74
2022-09-16T18:14:12.039Z,51.58
2022-09-16T18:16:39.914Z,51.88
2022-09-16T18:19:10.257Z,52.80
2022-09-16T18:21:40.787Z,52.87
2022-09-16T18:24:12.935Z,52.91
2022-09-16T18:26:42.166Z,52.31
2022-09-16T18:29:19.003Z,52.93
2022-09-16T18:31:48.801Z,53.79
2022-09-16T18:34:17.655Z,53.65
2022-09-16T18:36:45.303Z,53.43
2022-09-16T18:39:17.105Z,53.94
2022-09-16T18:41:45.769Z,54.04
2022-09-16T18:44:23.911Z,54.50
2022-09-16T18:46:52.684Z,54.13
2022-09-16T18:49:22.170Z,54.49
2022-09-16T18:51:52.426Z,54.77
2022-09-16T18:54:33.365Z,55.31
2022-09-16T18:57:01.963Z,54.91
2022-09-16T18:59:32.818Z,56.28
2022-09-16T19:02:03.590Z,54.68
2022-09-16T19:04:37.362Z,56.57
2022-09-16T19:07:08.495Z,56.76
2022-09-16T19:09:40.859Z,55.75
2022-09-16T19:12:13.012Z,55.10
2022-09-16T19:14:40.975Z,56.48
2022-09-16T19:17:08.526Z,57.89
2022-09-16T19:19:35.642Z,59.29
2022-09-16T19:22:05.641Z,61.04
2022-09-16T19:24:33.750Z,61.30
2022-09-16T19:27:00.677Z,60.38
2022-09-16T19:29:27.709Z,62.54
2022-09-16T19:31:54.679Z,62.53
2022-09-16T19:34:22.518Z,63.34
2022-09-16T19:36:50.206Z,65.58
2022-09-16T19:39:17.659Z,64.88
2022-09-16T19:41:47.145Z,67.78
2022-09-16T19:44:20.505Z,67.22
2022-09-16T19:46:49.105Z,70.06
2022-09-16T19:49:21.036Z,70.38
2022-09-16T19:51:50.045Z,70.73
2022-09-16T19:54:18.086Z,69.53
2022-09-16T19:56:50.321Z,72.00
2022-09-16T19:59:19.024Z,74.27
2022-09-16T20:01:46.635Z,74.99
2022-09-16T20:04:14.837Z,76.94
2022-09-16T20:06:42.715Z,77.55
2022-09-16T20:09:12.936Z,76.19
2022-09-16T20:11:45.386Z,75.90
2022-09-16T20:14:23.783Z,74.28
2022-09-16T20:16:51.907Z,75.56
2022-09-16T20:19:24.851Z,75.70
2022-09-16T20:21:51.973Z,75.62
2022-09-16T20:24:23.545Z,74.92
2022-09-16T20:26:57.349Z,76.30
2022-09-16T20:29:33.648Z,75.86
2022-09-16T20:32:00.972Z,77.12
2022-09-16T20:34:28.317Z,77.78
2022-09-16T20:36:55.276Z,79.11
2022-09-16T20:39:24.539Z,77.63
2022-09-16T20:41:52.735Z,80.08
2022-09-16T20:44:20.002Z,79.30
2022-09-16T20:46:48.994Z,79.64
2022-09-16T20:49:19.814Z,80.51
2022-09-16T20:51:50.268Z,79.93
2022-09-16T20:54:20.675Z,81.67
2022-09-16T20:56:49.378Z,80.62
2022-09-16T20:59:20.257Z,82.49
2022-09-16T21:01:48.545Z,82.36
2022-09-16T21:04:20.263Z,82.26
2022-09-16T21:06:47.366Z,82.12
2022-09-16T21:09:16.413Z,82.46
2022-09-16T21:11:52.862Z,83.14
2022-09-16T21:14:22.181Z,83.63
2022-09-16T21:16:49.414Z,83.94
2022-09-16T21:19:17.899Z,83.14
2022-09-16T21:21:48.632Z,83.89
2022-09-16T21:24:16.322Z,85.04
2022-09-16T21:26:44.877Z,85.41
2022-09-16T21:29:21.269Z,85.74
2022-09-16T21:31:51.918Z,86.45
2022-09-16T21:34:24.750Z,86.17
2022-09-16T21:36:52.695Z,86.12
2022-09-16T21:39:21.074Z,86.78
2022-09-16T21:41:48.716Z,86.67
2022-09-16T21:44:16.481Z,87.02
2022-09-16T21:46:46.264Z,87.12
2022-09-16T21:49:29.114Z,87.20
2022-09-16T21:51:58.739Z,87.49
2022-09-16T21:54:26.682Z,86.38
2022-09-16T21:56:56.063Z,87.06
2022-09-16T21:59:25.918Z,87.63
2022-09-16T22:02:05.403Z,87.24
2022-09-16T22:04:32.541Z,88.05
2022-09-16T22:06:59.590Z,89.44
2022-09-16T22:09:26.544Z,88.88
2022-09-16T22:11:59.188Z,88.20
2022-09-16T22:14:27.017Z,88.72
2022-09-16T22:16:53.967Z,88.28
2022-09-16T22:19:23.942Z,87.57
2022-09-16T22:21:51.646Z,87.98
2022-09-16T22:24:22.254Z,88.42
2022-09-16T22:26:56.428Z,89.12
2022-09-16T22:29:24.615Z,89.95
2022-09-16T22:31:51.821Z,91.11
2022-09-16T22:34:19.007Z,89.67
2022-09-16T22:36:46.736Z,90.16
2022-09-16T22:39:19.475Z,90.45
2022-09-16T22:41:47.850Z,89.01
2022-09-16T22:44:15.262Z,89.50
2022-09-16T22:46:49.686Z,89.13
2022-09-16T22:49:17.007Z,89.79
2022-09-16T22:51:49.534Z,90.28
2022-09-16T22:54:16.791Z,90.00
2022-09-16T22:56:44.740Z,90.82
2022-09-16T22:59:21.120Z,90.21
2022-09-16T23:01:48.820Z,89.35
2022-09-16T23:04:16.449Z,89.66
2022-09-16T23:06:43.627Z,89.42
2022-09-16T23:09:13.959Z,90.42
2022-09-16T23:11:43.752Z,89.49
2022-09-16T23:14:21.669Z,89.71
2022-09-16T23:16:48.996Z,89.09
2022-09-16T23:19:15.931Z,89.00
2022-09-16T23:21:43.126Z,89.57
2022-09-16T23:24:21.904Z,90.36
2022-09-16T23:26:49.668Z,90.23
2022-09-16T23:29:18.307Z,89.74
2022-09-16T23:31:45.593Z,89.73
2022-09-16T23:34:21.663Z,89.87
2022-09-16T23:37:04.646Z,90.47
2022-09-16T23:39:31.729Z,90.25
2022-09-16T23:42:01.439Z,90.48
2022-09-16T23:44:39.936Z,89.45
2022-09-16T23:47:09.974Z,89.68
2022-09-16T23:49:40.693Z,90.68
2022-09-16T23:52:08.350Z,91.10
2022-09-16T23:54:36.194Z,90.18
2022-09-16T23:57:03.219Z,90.72
2022-09-16T23:59:30.422Z,90.41
